ADDS METAR Data INFO
IDs: Format: Raw Decoded Include TAF

Data at: 0746 UTC 24 Oct 2017

KGON 240743Z AUTO 15016KT 8SM FEW009 BKN029 OVC042 19/18 A3001 RMK AO2 RAB02E39 P0010 T01940183 $